Time;durP1;ratioP1;P1;durP2;ratioP2;P2;SDS_P1;SDS_P2;PMS_P1;PMS_P2;Temp;Humidity;BMP_temperature;BMP_pressure;BME280_temperature;BME280_humidity;BME280_pressure;Samples;Min_cycle;Max_cycle;Signal;HPM_P1;HPM_P2
2022/12/03 00:02:01;;;;;;;0.50;0.50;;;;;;;5.90;66.68;101387.03;18368438;32;20111;-58
2022/12/03 00:12:05;;;;;;;2.08;1.10;;;;;;;6.00;66.76;101395.12;18354235;32;20105;-58
2022/12/03 00:22:09;;;;;;;0.80;0.80;;;;;;;5.91;66.74;101399.16;18367420;32;20117;-58
2022/12/03 00:32:14;;;;;;;0.70;0.70;;;;;;;5.92;67.01;101400.94;18368766;32;20450;-58
2022/12/03 00:42:19;;;;;;;1.05;1.05;;;;;;;5.90;67.20;101406.87;18367450;32;20361;-58
2022/12/03 00:52:22;;;;;;;0.60;0.60;;;;;;;5.94;66.88;101407.03;18367685;32;20097;-58
2022/12/03 01:02:26;;;;;;;0.95;0.95;;;;;;;6.01;66.79;101412.44;18360944;32;163574;-58
2022/12/03 01:12:30;;;;;;;0.70;0.70;;;;;;;5.99;66.93;101411.50;18366195;32;20128;-58
2022/12/03 01:22:34;;;;;;;1.15;1.15;;;;;;;5.93;67.05;101415.66;18366667;32;20105;-58
2022/12/03 01:32:37;;;;;;;0.60;0.60;;;;;;;5.81;67.35;101415.25;18365138;32;20098;-58
2022/12/03 01:42:42;;;;;;;1.02;0.93;;;;;;;5.96;67.10;101409.69;18371914;32;20089;-58
2022/12/03 01:52:45;;;;;;;0.60;0.60;;;;;;;5.89;67.22;101413.78;18372516;32;20097;-58
2022/12/03 02:02:53;;;;;;;0.98;0.98;;;;;;;5.94;67.10;101424.31;18372965;32;20370;-58
2022/12/03 02:12:59;;;;;;;0.75;0.75;;;;;;;6.08;66.90;101425.66;18372004;32;20103;-58
2022/12/03 02:23:09;;;;;;;3.78;3.60;;;;;;;5.87;67.35;101420.63;18371572;32;20104;-58
2022/12/03 02:33:13;;;;;;;1.00;1.00;;;;;;;5.97;67.25;101409.75;18371110;32;20104;-58
2022/12/03 02:43:17;;;;;;;0.80;0.80;;;;;;;5.88;67.46;101417.22;18370676;32;20488;-58
2022/12/03 02:53:25;;;;;;;0.90;0.90;;;;;;;5.82;67.64;101420.47;18370455;32;20112;-58
2022/12/03 03:03:29;;;;;;;1.58;1.48;;;;;;;5.89;67.62;101416.37;18355826;32;20104;-58
2022/12/03 03:13:34;;;;;;;1.77;1.67;;;;;;;5.95;67.35;101421.75;18370074;32;20120;-58
2022/12/03 03:23:37;;;;;;;0.90;0.90;;;;;;;5.79;67.77;101411.72;18371075;32;20151;-58
2022/12/03 03:33:44;;;;;;;0.80;0.80;;;;;;;5.74;67.84;101410.69;18369561;32;20094;-58
2022/12/03 03:43:48;;;;;;;5.32;1.62;;;;;;;5.83;67.64;101417.06;18369516;32;20093;-58
2022/12/03 03:53:53;;;;;;;0.90;0.90;;;;;;;5.81;67.73;101416.09;18368921;32;20117;-58
2022/12/03 04:03:58;;;;;;;6.22;2.08;;;;;;;5.90;67.39;101412.06;18367792;32;20097;-58
2022/12/03 04:14:03;;;;;;;0.65;0.65;;;;;;;5.99;67.28;101414.09;18368636;32;20115;-58
2022/12/03 04:24:07;;;;;;;2.58;2.40;;;;;;;5.96;67.11;101410.56;18367917;32;20098;-58
2022/12/03 04:44:38;;;;;;;1.33;1.23;;;;;;;6.00;67.05;101415.84;18105450;32;20174;-58
2022/12/03 04:54:43;;;;;;;0.62;0.62;;;;;;;6.10;66.44;101417.94;18105506;32;20187;-58
2022/12/03 05:04:46;;;;;;;4.22;3.83;;;;;;;5.96;66.64;101409.69;18104812;32;20122;-58
2022/12/03 05:14:50;;;;;;;0.90;0.90;;;;;;;6.05;66.04;101419.50;18167975;32;20464;-58
2022/12/03 05:24:54;;;;;;;1.02;1.02;;;;;;;6.13;65.91;101437.91;18365555;32;20125;-58
2022/12/03 05:34:59;;;;;;;1.05;0.73;;;;;;;6.23;65.65;101427.88;18364758;32;20077;-58
2022/12/03 05:45:02;;;;;;;1.08;1.00;;;;;;;6.21;65.63;101434.72;18364164;32;20105;-58
2022/12/03 05:55:08;;;;;;;0.60;0.60;;;;;;;6.40;65.12;101432.72;18363767;32;20139;-58
2022/12/03 06:05:12;;;;;;;1.08;1.05;;;;;;;5.42;66.44;101432.03;18362480;32;20153;-58
2022/12/03 06:15:17;;;;;;;0.70;0.70;;;;;;;5.95;65.60;101447.66;18362423;32;20107;-58
2022/12/03 06:25:21;;;;;;;0.80;0.80;;;;;;;6.16;64.43;101451.84;18363676;32;20093;-58
2022/12/03 06:35:25;;;;;;;1.67;1.58;;;;;;;6.36;64.38;101456.81;18371798;32;20488;-59
2022/12/03 06:45:28;;;;;;;0.60;0.60;;;;;;;6.20;64.66;101458.00;18367852;32;20143;-58
2022/12/03 06:55:33;;;;;;;0.60;0.60;;;;;;;5.23;67.42;101456.41;18367968;32;20187;-58
2022/12/03 07:05:36;;;;;;;0.70;0.70;;;;;;;5.74;65.95;101450.44;18368435;32;20447;-58
2022/12/03 07:15:41;;;;;;;0.70;0.70;;;;;;;6.34;64.76;101466.25;18369730;32;20144;-58
2022/12/03 07:25:44;;;;;;;1.23;1.08;;;;;;;6.48;64.40;101459.78;18371267;32;20117;-58
2022/12/03 07:35:48;;;;;;;1.40;1.30;;;;;;;6.67;64.36;101455.19;18368140;32;20462;-58
2022/12/03 07:45:51;;;;;;;3.97;2.72;;;;;;;6.60;63.41;101467.09;18368843;32;20362;-58
2022/12/03 07:55:56;;;;;;;0.70;0.70;;;;;;;6.20;64.29;101463.19;18368990;32;20093;-59
2022/12/03 08:05:59;;;;;;;2.25;2.15;;;;;;;6.56;63.50;101466.94;18369274;32;20089;-58
2022/12/03 08:16:14;;;;;;;0.60;0.60;;;;;;;6.20;64.39;101477.06;18368808;32;20616;-58
2022/12/03 08:26:21;;;;;;;0.68;0.68;;;;;;;6.70;63.73;101483.81;18368517;32;20085;-58
2022/12/03 08:36:29;;;;;;;0.62;0.62;;;;;;;6.45;64.05;101479.56;18368044;32;20401;-58
2022/12/03 08:46:32;;;;;;;0.80;0.80;;;;;;;6.52;63.88;101479.81;18367004;32;20089;-58
2022/12/03 08:56:37;;;;;;;0.80;0.80;;;;;;;6.60;63.61;101466.19;18366453;32;20107;-58
2022/12/03 09:06:40;;;;;;;1.15;0.75;;;;;;;7.22;64.04;101479.31;18365526;32;20128;-58
2022/12/03 09:16:45;;;;;;;1.52;1.42;;;;;;;7.33;61.49;101482.22;18364788;32;20148;-58
2022/12/03 09:26:48;;;;;;;1.35;0.88;;;;;;;7.24;62.31;101478.47;18363113;32;20342;-58
2022/12/03 09:36:53;;;;;;;1.20;1.12;;;;;;;7.26;62.11;101467.28;18363156;32;20101;-58
2022/12/03 09:46:58;;;;;;;0.80;0.80;;;;;;;6.95;62.21;101479.38;18359830;32;20511;-58
2022/12/03 09:57:04;;;;;;;0.90;0.90;;;;;;;6.03;64.57;101457.47;18364443;32;20512;-58
2022/12/03 10:07:09;;;;;;;0.73;0.73;;;;;;;6.22;64.53;101462.41;18372204;32;20520;-58
2022/12/03 10:17:14;;;;;;;0.80;0.80;;;;;;;6.30;64.16;101444.50;18372020;32;20098;-58
2022/12/03 10:27:22;;;;;;;1.00;1.00;;;;;;;7.63;61.43;101429.34;18371650;32;20094;-58
2022/12/03 10:37:27;;;;;;;0.73;0.73;;;;;;;7.85;60.35;101429.87;18372482;32;20104;-58
2022/12/03 10:47:30;;;;;;;5.55;4.78;;;;;;;7.66;61.40;101431.16;18372056;32;20186;-58
2022/12/03 10:57:35;;;;;;;0.70;0.70;;;;;;;8.00;61.31;101399.94;18357428;32;20434;-58
2022/12/03 11:07:43;;;;;;;1.33;1.30;;;;;;;8.41;58.91;101393.94;18369559;32;20108;-58
2022/12/03 11:17:50;;;;;;;1.25;1.15;;;;;;;7.53;62.13;101390.97;18370025;32;20163;-58
2022/12/03 11:28:36;;;;;;;0.70;0.70;;;;;;;7.64;62.87;101384.31;18369797;32;20408;-58
2022/12/03 11:38:55;;;;;;;0.50;0.50;;;;;;;8.28;61.60;101366.78;18355656;32;20128;-58
2022/12/03 11:48:59;;;;;;;0.57;0.57;;;;;;;7.41;62.53;101357.72;18369229;32;20081;-59
2022/12/03 11:59:11;;;;;;;2.42;2.20;;;;;;;7.69;62.53;101354.97;18363870;32;20145;-59
2022/12/03 12:09:14;;;;;;;3.15;2.15;;;;;;;8.61;60.83;101337.16;18359185;32;20438;-58
2022/12/03 12:19:46;;;;;;;1.02;0.95;;;;;;;8.29;61.74;101337.31;18334777;32;20100;-58
2022/12/03 12:29:57;;;;;;;0.62;0.62;;;;;;;8.18;61.34;101324.94;18368139;32;20402;-58
2022/12/03 12:40:07;;;;;;;1.12;0.77;;;;;;;8.01;61.94;101310.66;18359426;32;20101;-58
2022/12/03 12:50:11;;;;;;;1.17;1.05;;;;;;;7.80;62.74;101311.94;18167006;32;20217;-58
2022/12/03 13:00:19;;;;;;;1.90;0.80;;;;;;;7.29;64.07;101302.88;18167291;32;20130;-59
2022/12/03 13:10:39;;;;;;;3.08;2.85;;;;;;;7.61;63.01;101306.28;18242134;32;20183;-58
2022/12/03 13:20:43;;;;;;;1.05;0.90;;;;;;;7.62;63.35;101295.03;18365617;32;20146;-58
2022/12/03 13:30:46;;;;;;;0.60;0.55;;;;;;;7.46;64.02;101299.00;18368085;32;20089;-58
2022/12/03 13:40:58;;;;;;;1.12;1.10;;;;;;;7.95;62.42;101300.12;18373025;32;20094;-58
2022/12/03 13:51:02;;;;;;;;;;;;;;;7.87;62.44;101298.25;18373037;32;20097;-58
2022/12/03 14:01:06;;;;;;;1.48;1.35;;;;;;;7.96;62.05;101313.16;18372186;32;20304;-58
2022/12/03 14:12:24;;;;;;;1.12;1.12;;;;;;;7.94;62.53;101308.75;18373152;32;20146;-58
2022/12/03 14:21:34;;;;;;;0.70;0.70;;;;;;;7.70;63.58;101315.16;18371745;32;20496;-58
2022/12/03 14:31:37;;;;;;;0.60;0.60;;;;;;;8.30;61.86;101316.53;18369610;32;20166;-59
2022/12/03 14:52:03;;;;;;;0.80;0.80;;;;;;;9.08;59.48;101325.03;18353965;32;20097;-58
2022/12/03 15:02:08;;;;;;;1.15;1.10;;;;;;;8.08;62.30;101319.47;18371229;32;20437;-58
2022/12/03 15:12:11;;;;;;;0.70;0.70;;;;;;;9.17;59.21;101320.00;18370449;32;20101;-58
2022/12/03 15:22:15;;;;;;;1.42;0.95;;;;;;;9.64;58.15;101326.03;18369929;32;20078;-58
2022/12/03 15:32:18;;;;;;;1.35;1.25;;;;;;;9.56;58.63;101328.50;18370870;32;20133;-58
2022/12/03 15:42:23;;;;;;;0.50;0.50;;;;;;;9.53;58.57;101324.13;18364660;32;20504;-58
2022/12/03 15:52:26;;;;;;;0.88;0.88;;;;;;;9.58;58.51;101326.81;18365003;32;20097;-58
2022/12/03 16:02:32;;;;;;;1.05;0.95;;;;;;;9.57;58.33;101328.53;18362922;32;20112;-58
2022/12/03 16:12:36;;;;;;;0.70;0.70;;;;;;;9.42;58.66;101317.84;18355675;32;20129;-58
2022/12/03 16:31:09;;;;;;;1.15;1.15;;;;;;;9.10;59.12;101323.34;18731829;31;162342;-58
2022/12/03 16:41:13;;;;;;;0.93;0.93;;;;;;;8.75;59.63;101327.03;18673017;31;20096;-58
2022/12/03 16:51:18;;;;;;;1.20;1.17;;;;;;;8.42;60.27;101330.66;18672588;31;20114;-58
2022/12/03 17:01:22;;;;;;;3.28;3.08;;;;;;;7.87;62.06;101332.03;18672140;31;20088;-58
2022/12/03 17:11:27;;;;;;;1.85;1.67;;;;;;;8.13;61.34;101341.28;18657202;31;20110;-58
2022/12/03 17:21:30;;;;;;;2.65;2.45;;;;;;;8.21;60.82;101341.47;18671796;31;20100;-58
2022/12/03 17:31:38;;;;;;;3.33;2.30;;;;;;;7.97;61.10;101350.47;18671184;31;20135;-58
2022/12/03 17:41:44;;;;;;;1.02;1.02;;;;;;;7.83;60.95;101343.19;18574168;31;20088;-58
2022/12/03 17:51:49;;;;;;;1.90;1.75;;;;;;;7.76;60.85;101349.97;18566868;31;20096;-58
2022/12/03 18:01:52;;;;;;;3.40;3.10;;;;;;;7.41;61.48;101346.47;18562189;32;20145;-57
2022/12/03 18:11:56;;;;;;;0.60;0.60;;;;;;;7.31;61.70;101354.03;18563837;31;20145;-58
2022/12/03 18:22:00;;;;;;;0.57;0.57;;;;;;;7.10;61.57;101354.31;18560505;32;20137;-58
2022/12/03 18:32:06;;;;;;;0.88;0.88;;;;;;;6.99;61.50;101350.56;18551231;32;20437;-58
2022/12/03 18:42:28;;;;;;;1.42;1.33;;;;;;;6.68;62.08;101344.47;18578102;31;20805;-59
2022/12/03 18:52:32;;;;;;;0.57;0.57;;;;;;;6.56;62.28;101342.41;18566423;31;20174;-58
2022/12/03 19:02:35;;;;;;;0.68;0.68;;;;;;;6.38;62.76;101346.22;18603365;31;20124;-57
2022/12/03 19:13:02;;;;;;;1.80;1.70;;;;;;;6.24;63.12;101353.56;18558724;32;20361;-58
2022/12/03 19:23:05;;;;;;;1.30;1.20;;;;;;;6.11;63.39;101353.16;18558826;31;20111;-58
2022/12/03 19:33:10;;;;;;;1.33;1.33;;;;;;;5.90;63.77;101348.16;18558592;32;20100;-58
2022/12/03 19:43:20;;;;;;;4.57;3.40;;;;;;;5.94;63.98;101364.72;18556439;32;20132;-57
2022/12/03 19:53:25;;;;;;;0.70;0.70;;;;;;;5.91;63.68;101368.06;18556392;32;20180;-58
2022/12/03 20:03:28;;;;;;;8.40;4.40;;;;;;;5.81;63.68;101373.78;18555639;32;20107;-58
2022/12/03 20:13:33;;;;;;;5.15;3.65;;;;;;;5.78;63.69;101369.37;18556996;32;20110;-58
2022/12/03 20:23:39;;;;;;;1.45;1.35;;;;;;;5.58;64.34;101380.78;18605761;31;20103;-58
2022/12/03 20:33:45;;;;;;;2.47;2.03;;;;;;;5.56;64.22;101378.12;18605554;31;20218;-57
2022/12/03 20:43:49;;;;;;;2.35;2.25;;;;;;;5.51;64.00;101370.19;18591638;31;20361;-58
2022/12/03 20:53:55;;;;;;;1.67;1.58;;;;;;;5.19;64.92;101377.75;18564055;31;20091;-58
2022/12/03 21:03:58;;;;;;;1.80;1.70;;;;;;;5.35;64.29;101375.66;18619344;31;20396;-58
2022/12/03 21:14:03;;;;;;;1.65;1.52;;;;;;;5.29;64.91;101384.09;18611201;31;20096;-58
2022/12/03 21:24:07;;;;;;;0.80;0.80;;;;;;;5.11;65.03;101381.75;18626843;31;20109;-59
2022/12/03 21:34:12;;;;;;;0.98;0.98;;;;;;;5.31;64.72;101369.53;18622609;31;20095;-57
2022/12/03 21:44:15;;;;;;;0.70;0.70;;;;;;;5.21;65.09;101367.41;18588546;31;20182;-58
2022/12/03 21:54:20;;;;;;;4.03;3.70;;;;;;;5.13;64.99;101364.56;18561376;32;20088;-58
2022/12/03 22:04:23;;;;;;;2.42;2.25;;;;;;;5.10;64.86;101357.56;18577641;31;20144;-58
2022/12/03 22:14:28;;;;;;;2.25;2.05;;;;;;;4.62;66.56;101354.94;18561833;32;20222;-57
2022/12/03 22:24:31;;;;;;;1.77;1.65;;;;;;;4.97;65.69;101352.78;18559982;32;20110;-58
2022/12/03 22:34:36;;;;;;;1.60;1.50;;;;;;;5.08;65.67;101341.09;18614710;31;20116;-58
2022/12/03 22:44:39;;;;;;;2.72;2.53;;;;;;;5.12;65.65;101334.34;18626215;31;20467;-58
2022/12/03 22:54:45;;;;;;;0.85;0.85;;;;;;;5.05;65.91;101333.25;18592456;31;20494;-58
2022/12/03 23:04:49;;;;;;;4.43;4.05;;;;;;;5.22;65.78;101320.03;18615639;31;20096;-58
2022/12/03 23:14:54;;;;;;;4.12;3.78;;;;;;;5.26;65.48;101327.06;18624476;31;20104;-57
2022/12/03 23:24:57;;;;;;;7.45;5.68;;;;;;;5.44;65.29;101320.75;18624065;31;20091;-58
2022/12/03 23:35:02;;;;;;;0.77;0.77;;;;;;;5.52;65.74;101314.13;18603933;31;20103;-58
2022/12/03 23:45:06;;;;;;;1.30;1.30;;;;;;;5.73;65.92;101302.69;18591923;31;20124;-58
2022/12/03 23:55:11;;;;;;;9.52;4.80;;;;;;;5.89;65.95;101302.34;18588014;31;20466;-58
